Time,TemperatureF,DewpointF,PressureIn,WindDirection,WindDirectionDegrees,WindSpeedMPH,WindSpeedGustMPH,Humidity,HourlyPrecipIn,Conditions,Clouds,dailyrainin,SoftwareType,DateUTC
2013-10-02 00:00:00,58.7,58.7,29.76,SSW,203,0.0,1.0,100,0.00,,---,-99.99,VWS V14.01,2013-10-02 04:00:00,
2013-10-02 00:01:00,58.7,58.7,29.76,SSW,203,0.0,0.0,100,0.00,,---,0.00,VWS V14.01,2013-10-02 04:01:00,
2013-10-02 00:02:00,58.6,58.6,29.76,SSW,203,0.0,0.0,100,0.00,,---,0.00,VWS V14.01,2013-10-02 04:02:00,
2013-10-02 00:07:00,58.6,58.6,29.76,SSW,202,0.0,0.0,100,0.00,,---,0.00,VWS V14.01,2013-10-02 04:07:00,
2013-10-02 00:12:00,58.3,58.3,29.76,SSW,200,0.0,0.0,100,0.00,,---,0.00,VWS V14.01,2013-10-02 04:12:00,
2013-10-02 00:17:00,58.3,58.3,29.76,SSW,213,0.0,0.0,100,0.00,,---,0.00,VWS V14.01,2013-10-02 04:17:00,
2013-10-02 00:22:00,58.3,58.3,29.76,SSW,212,0.0,0.0,100,0.00,,---,0.00,VWS V14.01,2013-10-02 04:22:00,
2013-10-02 00:27:00,57.8,57.8,29.76,SSW,212,0.0,0.0,100,0.00,,---,0.00,VWS V14.01,2013-10-02 04:27:00,
2013-10-02 00:32:00,57.8,57.8,29.76,SSW,212,0.0,0.0,100,0.00,,---,0.00,VWS V14.01,2013-10-02 04:32:00,
2013-10-02 00:37:00,58.0,58.0,29.76,SSW,212,0.0,0.0,100,0.00,,---,0.00,VWS V14.01,2013-10-02 04:37:00,
2013-10-02 00:43:00,57.3,57.3,29.76,SSW,212,0.0,0.0,100,0.00,,---,0.00,VWS V14.01,2013-10-02 04:43:00,
2013-10-02 00:48:00,57.8,57.8,29.75,SSW,212,0.0,0.0,100,0.00,,---,0.00,VWS V14.01,2013-10-02 04:48:00,
2013-10-02 00:53:00,57.6,57.6,29.75,SSW,212,0.0,0.0,100,0.00,,---,0.00,VWS V14.01,2013-10-02 04:53:00,
2013-10-02 00:58:00,57.3,57.3,29.75,SSW,212,0.0,0.0,100,0.00,,---,0.00,VWS V14.01,2013-10-02 04:58:00,
2013-10-02 01:00:00,57.3,57.3,29.75,SSW,212,0.0,0.0,100,0.00,,---,-99.99,VWS V14.01,2013-10-02 05:00:00,
2013-10-02 01:03:00,57.3,57.3,29.75,SSW,212,0.0,0.0,100,0.00,,---,0.00,VWS V14.01,2013-10-02 05:03:00,
2013-10-02 01:08:00,57.5,57.5,29.75,SSW,212,0.0,0.0,100,0.00,,---,0.00,VWS V14.01,2013-10-02 05:08:00,
2013-10-02 01:13:00,56.9,56.9,29.75,SSW,212,0.0,0.0,100,0.00,,---,0.00,VWS V14.01,2013-10-02 05:13:00,
2013-10-02 01:18:00,56.9,56.9,29.75,SSW,212,0.0,0.0,100,0.00,,---,0.00,VWS V14.01,2013-10-02 05:18:00,
2013-10-02 01:23:00,56.9,56.9,29.75,SSW,212,0.0,0.0,100,0.00,,---,0.00,VWS V14.01,2013-10-02 05:23:00,
2013-10-02 01:28:00,56.9,56.9,29.75,SSW,212,0.0,0.0,100,0.00,,---,0.00,VWS V14.01,2013-10-02 05:28:00,
2013-10-02 01:33:00,57.2,57.2,29.75,SSW,212,0.0,0.0,100,0.00,,---,0.00,VWS V14.01,2013-10-02 05:33:00,
2013-10-02 01:38:00,57.2,57.2,29.75,SSW,212,0.0,0.0,100,0.00,,---,0.00,VWS V14.01,2013-10-02 05:38:00,
2013-10-02 01:43:00,57.2,57.2,29.75,SSW,212,0.0,0.0,100,0.00,,---,0.00,VWS V14.01,2013-10-02 05:43:00,
2013-10-02 01:49:00,57.2,57.2,29.75,SSW,212,0.0,0.0,100,0.00,,---,0.00,VWS V14.01,2013-10-02 05:49:00,
2013-10-02 01:54:00,57.0,57.0,29.75,SSW,212,0.0,0.0,100,0.00,,---,0.00,VWS V14.01,2013-10-02 05:54:00,
2013-10-02 01:59:00,57.2,57.2,29.75,SSW,212,0.0,0.0,100,0.00,,---,0.00,VWS V14.01,2013-10-02 05:59:00,
2013-10-02 02:00:00,57.3,57.3,29.75,SSW,212,0.0,0.0,100,0.00,,---,-99.99,VWS V14.01,2013-10-02 06:00:00,
2013-10-02 02:04:00,57.3,57.3,29.75,SSW,212,0.0,0.0,100,0.00,,---,0.00,VWS V14.01,2013-10-02 06:04:00,
2013-10-02 02:09:00,57.2,57.2,29.75,SSW,212,0.0,0.0,100,0.00,,---,0.00,VWS V14.01,2013-10-02 06:09:00,
2013-10-02 02:14:00,57.2,57.2,29.74,SSW,212,0.0,0.0,100,0.00,,---,0.00,VWS V14.01,2013-10-02 06:14:00,
2013-10-02 02:19:00,57.2,57.2,29.74,SSW,212,0.0,0.0,100,0.00,,---,0.00,VWS V14.01,2013-10-02 06:19:00,
2013-10-02 02:24:00,57.2,57.2,29.74,SSW,212,0.0,0.0,100,0.00,,---,0.00,VWS V14.01,2013-10-02 06:24:00,
2013-10-02 02:29:00,57.2,57.2,29.74,SSW,212,0.0,0.0,100,0.00,,---,0.00,VWS V14.01,2013-10-02 06:29:00,
2013-10-02 02:34:00,57.2,57.2,29.74,SSW,212,0.0,0.0,100,0.00,,---,0.00,VWS V14.01,2013-10-02 06:34:00,
2013-10-02 02:39:00,57.2,57.2,29.74,SSW,212,0.0,0.0,100,0.00,,---,0.00,VWS V14.01,2013-10-02 06:39:00,
2013-10-02 02:44:00,57.2,57.2,29.74,SSW,212,0.0,0.0,100,0.00,,---,0.00,VWS V14.01,2013-10-02 06:44:00,
2013-10-02 02:49:00,57.2,57.2,29.74,SSW,212,0.0,0.0,100,0.00,,---,0.00,VWS V14.01,2013-10-02 06:49:00,
2013-10-02 02:54:00,56.9,56.9,29.74,SSW,212,0.0,0.0,100,0.00,,---,0.00,VWS V14.01,2013-10-02 06:54:00,
2013-10-02 02:59:00,56.9,56.9,29.74,SSW,212,0.0,0.0,100,0.00,,---,0.00,VWS V14.01,2013-10-02 06:59:00,
2013-10-02 03:00:00,56.9,56.9,29.74,SSW,212,0.0,0.0,100,0.00,,---,-99.99,VWS V14.01,2013-10-02 07:00:00,
2013-10-02 03:04:00,56.9,56.9,29.74,SSW,212,0.0,0.0,100,0.00,,---,0.00,VWS V14.01,2013-10-02 07:04:00,
2013-10-02 03:09:00,57.0,57.0,29.74,SSW,212,0.0,0.0,100,0.00,,---,0.00,VWS V14.01,2013-10-02 07:09:00,
2013-10-02 03:14:00,56.9,56.9,29.74,SSW,212,0.0,0.0,100,0.00,,---,0.00,VWS V14.01,2013-10-02 07:14:00,
2013-10-02 03:19:00,56.9,56.9,29.74,SSW,212,0.0,0.0,100,0.00,,---,0.00,VWS V14.01,2013-10-02 07:19:00,
2013-10-02 03:24:00,56.9,56.9,29.74,SSW,212,0.0,0.0,100,0.01,,---,0.01,VWS V14.01,2013-10-02 07:24:00,
2013-10-02 03:29:00,56.9,56.9,29.74,SSW,212,0.0,0.0,100,0.01,,---,0.01,VWS V14.01,2013-10-02 07:29:00,
2013-10-02 03:34:00,56.7,56.7,29.74,SSW,212,0.0,0.0,100,0.01,,---,0.01,VWS V14.01,2013-10-02 07:34:00,
2013-10-02 03:39:00,56.6,56.6,29.74,SSW,212,0.0,0.0,100,0.01,,---,0.01,VWS V14.01,2013-10-02 07:39:00,
2013-10-02 03:44:00,56.6,56.6,29.74,SSW,212,0.0,0.0,100,0.01,,---,0.01,VWS V14.01,2013-10-02 07:44:00,
2013-10-02 03:49:00,56.6,56.6,29.74,SSW,212,0.0,0.0,100,0.01,,---,0.01,VWS V14.01,2013-10-02 07:49:00,
2013-10-02 03:54:00,56.6,56.6,29.74,SSW,212,0.0,0.0,100,0.01,,---,0.01,VWS V14.01,2013-10-02 07:54:00,
2013-10-02 03:59:00,56.6,56.6,29.75,SSW,212,0.0,0.0,100,0.01,,---,0.01,VWS V14.01,2013-10-02 07:59:00,
2013-10-02 04:00:00,56.6,56.6,29.75,SSW,212,0.0,0.0,100,0.01,,---,-99.99,VWS V14.01,2013-10-02 08:00:00,
2013-10-02 04:04:00,56.6,56.6,29.75,SSW,212,0.0,0.0,100,0.01,,---,0.01,VWS V14.01,2013-10-02 08:04:00,
2013-10-02 04:09:00,56.5,56.5,29.75,SSW,212,0.0,0.0,100,0.01,,---,0.01,VWS V14.01,2013-10-02 08:09:00,
2013-10-02 04:14:00,56.5,56.5,29.75,SSW,212,0.0,0.0,100,0.01,,---,0.01,VWS V14.01,2013-10-02 08:14:00,
2013-10-02 04:19:00,56.5,56.5,29.75,SSW,212,0.0,0.0,100,0.01,,---,0.01,VWS V14.01,2013-10-02 08:19:00,
2013-10-02 04:24:00,56.6,56.6,29.75,SSW,212,0.0,0.0,100,0.01,,---,0.01,VWS V14.01,2013-10-02 08:24:00,
2013-10-02 04:29:00,56.5,56.5,29.75,SSW,212,0.0,0.0,100,0.01,,---,0.01,VWS V14.01,2013-10-02 08:29:00,
2013-10-02 04:34:00,56.3,56.3,29.75,SSW,212,0.0,0.0,100,0.01,,---,0.01,VWS V14.01,2013-10-02 08:34:00,
2013-10-02 04:39:00,56.3,56.3,29.75,SSW,212,0.0,0.0,100,0.01,,---,0.01,VWS V14.01,2013-10-02 08:39:00,
2013-10-02 04:44:00,56.3,56.3,29.75,SSW,212,0.0,0.0,100,0.01,,---,0.01,VWS V14.01,2013-10-02 08:44:00,
2013-10-02 04:50:00,56.2,56.2,29.75,SSW,212,0.0,0.0,100,0.01,,---,0.01,VWS V14.01,2013-10-02 08:50:00,
2013-10-02 04:55:00,56.2,56.2,29.75,SSW,212,0.0,0.0,100,0.01,,---,0.01,VWS V14.01,2013-10-02 08:55:00,
2013-10-02 05:00:00,56.2,56.2,29.75,SSW,212,0.0,0.0,100,0.00,,---,0.01,VWS V14.01,2013-10-02 09:00:00,
2013-10-02 05:05:00,56.0,56.0,29.75,SSW,212,0.0,0.0,100,0.00,,---,0.01,VWS V14.01,2013-10-02 09:05:00,
2013-10-02 05:10:00,56.6,56.6,29.75,SSW,212,0.0,0.0,100,0.00,,---,0.01,VWS V14.01,2013-10-02 09:10:00,
2013-10-02 05:15:00,56.6,56.6,29.74,SSW,212,0.0,0.0,100,0.00,,---,0.01,VWS V14.01,2013-10-02 09:15:00,
2013-10-02 05:20:00,56.0,56.0,29.74,SSW,212,0.0,0.0,100,0.00,,---,0.01,VWS V14.01,2013-10-02 09:20:00,
2013-10-02 05:25:00,56.0,56.0,29.74,SSW,212,0.0,0.0,100,0.00,,---,0.01,VWS V14.01,2013-10-02 09:25:00,
2013-10-02 05:30:00,55.9,55.9,29.74,SSW,212,0.0,0.0,100,0.00,,---,0.01,VWS V14.01,2013-10-02 09:30:00,
2013-10-02 05:35:00,55.9,55.9,29.74,SSW,212,0.0,0.0,100,0.00,,---,0.01,VWS V14.01,2013-10-02 09:35:00,
2013-10-02 05:40:00,56.0,56.0,29.74,SSW,212,0.0,0.0,100,0.00,,---,0.01,VWS V14.01,2013-10-02 09:40:00,
2013-10-02 05:45:00,56.0,56.0,29.74,SSW,212,0.0,0.0,100,0.00,,---,0.01,VWS V14.01,2013-10-02 09:45:00,
2013-10-02 05:50:00,56.2,56.2,29.74,SSW,212,0.0,0.0,100,0.00,,---,0.01,VWS V14.01,2013-10-02 09:50:00,
2013-10-02 05:55:00,56.0,56.0,29.74,SSW,212,0.0,0.0,100,0.00,,---,0.01,VWS V14.01,2013-10-02 09:55:00,
2013-10-02 06:00:00,56.0,56.0,29.74,SSW,212,0.0,0.0,100,0.00,,---,0.01,VWS V14.01,2013-10-02 10:00:00,
2013-10-02 06:05:00,56.0,56.0,29.74,SSW,212,0.0,0.0,100,0.00,,---,0.01,VWS V14.01,2013-10-02 10:05:00,
2013-10-02 06:10:00,55.7,55.7,29.74,SSW,212,0.0,0.0,100,0.00,,---,0.01,VWS V14.01,2013-10-02 10:10:00,
2013-10-02 06:15:00,55.7,55.7,29.75,SSW,212,0.0,0.0,100,0.00,,---,0.01,VWS V14.01,2013-10-02 10:15:00,
2013-10-02 06:20:00,55.7,55.7,29.75,SSW,212,0.0,0.0,100,0.00,,---,0.01,VWS V14.01,2013-10-02 10:20:00,
2013-10-02 06:25:00,55.9,55.9,29.75,SSW,212,0.0,0.0,100,0.00,,---,0.01,VWS V14.01,2013-10-02 10:25:00,
2013-10-02 06:30:00,56.0,56.0,29.75,SSW,212,0.0,0.0,100,0.00,,---,0.01,VWS V14.01,2013-10-02 10:30:00,
2013-10-02 06:35:00,55.9,55.9,29.75,SSW,212,0.0,0.0,100,0.00,,---,0.01,VWS V14.01,2013-10-02 10:35:00,
2013-10-02 06:41:00,55.9,55.9,29.75,SSW,212,0.0,0.0,100,0.00,,---,0.01,VWS V14.01,2013-10-02 10:41:00,
2013-10-02 06:46:00,56.5,56.5,29.75,SSW,212,0.0,0.0,100,0.00,,---,0.01,VWS V14.01,2013-10-02 10:46:00,
2013-10-02 06:51:00,56.0,56.0,29.75,SSW,212,0.0,0.0,100,0.00,,---,0.01,VWS V14.01,2013-10-02 10:51:00,
2013-10-02 06:56:00,56.0,56.0,29.75,SSW,212,0.0,0.0,100,0.00,,---,0.01,VWS V14.01,2013-10-02 10:56:00,
2013-10-02 07:00:00,56.0,56.0,29.75,SSW,212,0.0,0.0,100,0.00,,---,-99.99,VWS V14.01,2013-10-02 11:00:00,
2013-10-02 07:01:00,55.9,55.9,29.75,SSW,212,0.0,0.0,100,0.00,,---,0.01,VWS V14.01,2013-10-02 11:01:00,
2013-10-02 07:06:00,56.5,56.5,29.75,SSW,212,0.0,0.0,100,0.00,,---,0.01,VWS V14.01,2013-10-02 11:06:00,
2013-10-02 07:11:00,56.2,56.2,29.75,SSW,212,0.0,0.0,100,0.00,,---,0.01,VWS V14.01,2013-10-02 11:11:00,
2013-10-02 07:16:00,56.2,56.2,29.75,SSW,212,0.0,0.0,100,0.00,,---,0.01,VWS V14.01,2013-10-02 11:16:00,
2013-10-02 07:21:00,56.2,56.2,29.75,SSW,212,0.0,0.0,100,0.00,,---,0.01,VWS V14.01,2013-10-02 11:21:00,
2013-10-02 07:26:00,56.2,56.2,29.75,SSW,212,0.0,0.0,100,0.00,,---,0.01,VWS V14.01,2013-10-02 11:26:00,
2013-10-02 07:31:00,56.6,56.6,29.75,SSW,212,0.0,0.0,100,0.00,,---,0.01,VWS V14.01,2013-10-02 11:31:00,
2013-10-02 07:36:00,57.2,57.2,29.75,SSW,212,0.0,0.0,100,0.00,,---,0.01,VWS V14.01,2013-10-02 11:36:00,
2013-10-02 07:41:00,57.2,57.2,29.75,SSW,212,0.0,0.0,100,0.00,,---,0.01,VWS V14.01,2013-10-02 11:41:00,
2013-10-02 07:46:00,56.7,56.7,29.75,SSW,212,0.0,0.0,100,0.00,,---,0.01,VWS V14.01,2013-10-02 11:46:00,
2013-10-02 07:52:00,56.7,56.7,29.75,SSW,212,0.0,0.0,100,0.00,,---,0.01,VWS V14.01,2013-10-02 11:52:00,
2013-10-02 07:57:00,56.7,56.7,29.75,SSW,212,0.0,0.0,100,0.00,,---,0.01,VWS V14.01,2013-10-02 11:57:00,
2013-10-02 08:00:00,56.7,56.7,29.75,SSW,212,0.0,0.0,100,0.00,,---,-99.99,VWS V14.01,2013-10-02 12:00:00,
2013-10-02 08:02:00,56.7,56.7,29.75,SSW,212,0.0,0.0,100,0.00,,---,0.01,VWS V14.01,2013-10-02 12:02:00,
2013-10-02 08:07:00,57.2,57.2,29.75,SSW,212,0.0,0.0,100,0.00,,---,0.01,VWS V14.01,2013-10-02 12:07:00,
2013-10-02 08:12:00,57.5,57.5,29.75,SSW,212,0.0,0.0,100,0.00,,---,0.01,VWS V14.01,2013-10-02 12:12:00,
2013-10-02 08:17:00,58.1,58.1,29.75,SSW,212,0.0,0.0,100,0.00,,---,0.01,VWS V14.01,2013-10-02 12:17:00,
2013-10-02 08:22:00,57.8,57.8,29.75,SSW,212,0.0,0.0,100,0.00,,---,0.01,VWS V14.01,2013-10-02 12:22:00,
2013-10-02 08:27:00,58.7,58.7,29.75,SSW,212,0.0,0.0,100,0.00,,---,0.01,VWS V14.01,2013-10-02 12:27:00,
2013-10-02 08:32:00,58.7,58.7,29.75,SSW,213,0.0,0.0,100,0.00,,---,0.01,VWS V14.01,2013-10-02 12:32:00,
2013-10-02 08:37:00,58.7,58.7,29.75,SSW,213,0.0,0.0,100,0.00,,---,0.01,VWS V14.01,2013-10-02 12:37:00,
2013-10-02 08:42:00,60.7,60.7,29.75,SSW,203,0.0,0.0,100,0.00,,---,0.01,VWS V14.01,2013-10-02 12:42:00,
2013-10-02 08:47:00,60.7,60.7,29.75,SSW,205,0.0,0.0,100,0.00,,---,0.01,VWS V14.01,2013-10-02 12:47:00,
2013-10-02 08:52:00,60.1,60.1,29.75,SSW,212,0.0,0.0,100,0.00,,---,0.01,VWS V14.01,2013-10-02 12:52:00,
2013-10-02 08:57:00,60.2,60.2,29.75,SSW,213,0.0,0.0,100,0.00,,---,0.01,VWS V14.01,2013-10-02 12:57:00,
2013-10-02 09:00:00,60.2,60.2,29.74,SSW,213,0.0,0.0,100,0.00,,---,-99.99,VWS V14.01,2013-10-02 13:00:00,
2013-10-02 09:02:00,60.7,60.7,29.74,SSW,213,0.0,0.0,100,0.00,,---,0.01,VWS V14.01,2013-10-02 13:02:00,
2013-10-02 09:07:00,61.3,61.3,29.74,SSW,213,0.0,0.0,100,0.00,,---,0.01,VWS V14.01,2013-10-02 13:07:00,
2013-10-02 09:12:00,62.3,62.3,29.74,SSW,213,0.0,0.0,100,0.00,,---,0.01,VWS V14.01,2013-10-02 13:12:00,
2013-10-02 09:17:00,62.3,62.3,29.74,SSW,213,0.0,0.0,100,0.00,,---,0.01,VWS V14.01,2013-10-02 13:17:00,
2013-10-02 09:22:00,62.3,62.3,29.74,SW,233,2.0,2.0,100,0.00,,---,0.01,VWS V14.01,2013-10-02 13:22:00,
2013-10-02 09:27:00,63.9,63.9,29.74,WSW,241,0.0,2.0,100,0.00,,---,0.01,VWS V14.01,2013-10-02 13:27:00,
2013-10-02 09:33:00,65.2,65.2,29.74,SW,233,1.0,2.0,100,0.00,,---,0.01,VWS V14.01,2013-10-02 13:33:00,
2013-10-02 09:38:00,65.2,65.2,29.74,SW,233,0.0,2.0,100,0.00,,---,0.01,VWS V14.01,2013-10-02 13:38:00,
2013-10-02 09:43:00,65.8,62.2,29.74,SW,229,3.0,6.0,88,0.00,,---,0.01,VWS V14.01,2013-10-02 13:43:00,
2013-10-02 09:48:00,65.3,60.7,29.74,SW,234,1.0,6.0,85,0.00,,---,0.01,VWS V14.01,2013-10-02 13:48:00,
2013-10-02 09:53:00,65.3,59.7,29.74,SW,236,2.0,6.0,82,0.00,,---,0.01,VWS V14.01,2013-10-02 13:53:00,
2013-10-02 09:58:00,65.3,59.7,29.74,WSW,246,5.0,6.0,82,0.00,,---,0.01,VWS V14.01,2013-10-02 13:58:00,
2013-10-02 10:00:00,65.3,59.7,29.74,WSW,246,4.0,6.0,82,0.00,,---,-99.99,VWS V14.01,2013-10-02 14:00:00,
2013-10-02 10:03:00,65.2,59.6,29.74,WSW,246,4.0,5.0,82,0.00,,---,0.01,VWS V14.01,2013-10-02 14:03:00,
2013-10-02 10:08:00,65.6,60.0,29.74,WSW,244,4.0,5.0,82,0.00,,---,0.01,VWS V14.01,2013-10-02 14:08:00,
2013-10-02 10:13:00,65.6,60.0,29.74,WSW,244,0.0,5.0,82,0.00,,---,0.01,VWS V14.01,2013-10-02 14:13:00,
2013-10-02 10:18:00,66.4,60.7,29.74,SW,232,0.0,5.0,82,0.00,,---,0.01,VWS V14.01,2013-10-02 14:18:00,
2013-10-02 10:23:00,66.4,60.7,29.74,SW,230,3.0,5.0,82,0.00,,---,0.01,VWS V14.01,2013-10-02 14:23:00,
2013-10-02 10:28:00,67.1,58.5,29.74,WSW,243,7.0,7.0,74,0.00,,---,0.01,VWS V14.01,2013-10-02 14:28:00,
2013-10-02 10:33:00,67.1,58.5,29.73,WSW,243,6.0,7.0,74,0.00,,---,0.01,VWS V14.01,2013-10-02 14:33:00,
2013-10-02 10:38:00,67.1,58.5,29.73,WSW,244,7.0,7.0,74,0.00,,---,0.01,VWS V14.01,2013-10-02 14:38:00,
2013-10-02 10:43:00,67.1,58.5,29.73,SW,232,1.0,7.0,74,0.00,,---,0.01,VWS V14.01,2013-10-02 14:43:00,
2013-10-02 10:48:00,67.8,59.2,29.73,WSW,241,8.0,8.0,74,0.00,,---,0.01,VWS V14.01,2013-10-02 14:48:00,
2013-10-02 10:53:00,67.8,59.2,29.73,WSW,240,6.0,8.0,74,0.00,,---,0.01,VWS V14.01,2013-10-02 14:53:00,
2013-10-02 10:58:00,67.8,59.2,29.73,SW,227,4.0,8.0,74,0.00,,---,0.01,VWS V14.01,2013-10-02 14:58:00,
2013-10-02 11:00:00,67.8,59.2,29.73,SW,227,4.0,8.0,74,0.00,,---,-99.99,VWS V14.01,2013-10-02 15:00:00,
2013-10-02 11:03:00,68.4,59.8,29.73,SW,236,6.0,7.0,74,0.00,,---,0.01,VWS V14.01,2013-10-02 15:03:00,
2013-10-02 11:08:00,68.4,59.8,29.73,SW,233,3.0,7.0,74,0.00,,---,0.01,VWS V14.01,2013-10-02 15:08:00,
2013-10-02 11:13:00,68.4,59.8,29.73,SW,234,2.0,7.0,74,0.00,,---,0.01,VWS V14.01,2013-10-02 15:13:00,
2013-10-02 11:18:00,69.1,60.5,29.72,SW,229,5.0,7.0,74,0.00,,---,0.01,VWS V14.01,2013-10-02 15:18:00,
2013-10-02 11:23:00,69.3,60.7,29.72,SW,230,3.0,7.0,74,0.00,,---,0.01,VWS V14.01,2013-10-02 15:23:00,
2013-10-02 11:28:00,69.3,60.7,29.72,SW,230,1.0,7.0,74,0.00,,---,0.01,VWS V14.01,2013-10-02 15:28:00,
2013-10-02 11:33:00,69.3,60.7,29.72,SW,227,3.0,7.0,74,0.00,,---,0.01,VWS V14.01,2013-10-02 15:33:00,
2013-10-02 11:38:00,70.1,61.4,29.72,SW,230,1.0,7.0,74,0.00,,---,0.01,VWS V14.01,2013-10-02 15:38:00,
2013-10-02 11:43:00,70.6,61.9,29.72,SSW,205,3.0,7.0,74,0.00,,---,0.01,VWS V14.01,2013-10-02 15:43:00,
2013-10-02 11:48:00,70.4,61.7,29.72,SW,234,0.0,7.0,74,0.00,,---,0.01,VWS V14.01,2013-10-02 15:48:00,
2013-10-02 11:53:00,70.8,62.1,29.72,WSW,239,7.0,7.0,74,0.00,,---,0.01,VWS V14.01,2013-10-02 15:53:00,
2013-10-02 11:58:00,70.6,61.9,29.72,SW,234,6.0,7.0,74,0.00,,---,0.01,VWS V14.01,2013-10-02 15:58:00,
2013-10-02 12:00:00,70.6,59.1,29.72,SW,230,3.0,7.0,67,0.00,,---,-99.99,VWS V14.01,2013-10-02 16:00:00,
2013-10-02 12:03:00,70.6,59.1,29.72,WSW,241,7.0,7.0,67,0.00,,---,0.01,VWS V14.01,2013-10-02 16:03:00,
2013-10-02 12:08:00,69.8,58.4,29.72,WSW,240,6.0,7.0,67,0.00,,---,0.01,VWS V14.01,2013-10-02 16:08:00,
2013-10-02 12:13:00,70.4,58.9,29.72,SW,232,2.0,7.0,67,0.00,,---,0.01,VWS V14.01,2013-10-02 16:13:00,
2013-10-02 12:18:00,70.8,59.3,29.71,WSW,241,2.0,7.0,67,0.00,,---,0.01,VWS V14.01,2013-10-02 16:18:00,
2013-10-02 12:23:00,71.3,59.8,29.71,SW,234,2.0,7.0,67,0.00,,---,0.01,VWS V14.01,2013-10-02 16:23:00,
2013-10-02 12:28:00,71.5,60.0,29.71,SW,232,5.0,7.0,67,0.00,,---,0.01,VWS V14.01,2013-10-02 16:28:00,
2013-10-02 12:33:00,71.5,60.0,29.70,SW,236,7.0,7.0,67,0.00,,---,0.01,VWS V14.01,2013-10-02 16:33:00,
2013-10-02 12:38:00,71.5,60.0,29.70,SW,236,5.0,7.0,67,0.00,,---,0.01,VWS V14.01,2013-10-02 16:38:00,
2013-10-02 12:43:00,71.5,60.0,29.70,SW,233,4.0,7.0,67,0.00,,---,0.01,VWS V14.01,2013-10-02 16:43:00,
2013-10-02 12:48:00,71.5,60.0,29.70,SSW,213,7.0,7.0,67,0.00,,---,0.01,VWS V14.01,2013-10-02 16:48:00,
2013-10-02 12:53:00,71.5,60.0,29.70,SW,222,1.0,7.0,67,0.00,,---,0.01,VWS V14.01,2013-10-02 16:53:00,
2013-10-02 12:58:00,72.1,60.5,29.70,SSW,212,3.0,7.0,67,0.00,,---,0.01,VWS V14.01,2013-10-02 16:58:00,
2013-10-02 13:00:00,72.1,60.5,29.69,South,174,0.0,7.0,67,0.00,,---,-99.99,VWS V14.01,2013-10-02 17:00:00,
2013-10-02 13:03:00,72.5,60.9,29.69,SSW,200,1.0,1.0,67,0.00,,---,0.01,VWS V14.01,2013-10-02 17:03:00,
2013-10-02 13:08:00,72.5,60.9,29.69,SSW,210,5.0,5.0,67,0.00,,---,0.01,VWS V14.01,2013-10-02 17:08:00,
2013-10-02 13:13:00,72.3,60.7,29.69,SW,215,3.0,6.0,67,0.00,,---,0.01,VWS V14.01,2013-10-02 17:13:00,
2013-10-02 13:18:00,72.1,60.5,29.68,SSW,209,6.0,6.0,67,0.00,,---,0.01,VWS V14.01,2013-10-02 17:18:00,
2013-10-02 13:23:00,71.6,60.1,29.68,SW,219,4.0,6.0,67,0.00,,---,0.01,VWS V14.01,2013-10-02 17:23:00,
2013-10-02 13:28:00,71.5,60.0,29.68,SW,224,3.0,6.0,67,0.00,,---,0.01,VWS V14.01,2013-10-02 17:28:00,
2013-10-02 13:34:00,71.3,59.8,29.68,SW,236,6.0,7.0,67,0.00,,---,0.01,VWS V14.01,2013-10-02 17:34:00,
2013-10-02 13:38:00,71.3,59.4,29.68,SW,234,8.0,8.0,66,0.00,,---,0.01,VWS V14.01,2013-10-02 17:38:00,
2013-10-02 13:44:00,70.9,59.4,29.67,SW,229,6.0,8.0,67,0.00,,---,0.01,VWS V14.01,2013-10-02 17:44:00,
2013-10-02 13:49:00,70.8,58.5,29.67,WSW,250,9.0,11.0,65,0.00,,---,0.01,VWS V14.01,2013-10-02 17:49:00,
2013-10-02 13:54:00,71.1,58.8,29.67,SW,236,7.0,11.0,65,0.00,,---,0.01,VWS V14.01,2013-10-02 17:54:00,
2013-10-02 13:59:00,71.1,58.8,29.67,WSW,240,7.0,11.0,65,0.00,,---,0.01,VWS V14.01,2013-10-02 17:59:00,
2013-10-02 14:00:00,71.1,58.8,29.67,WSW,240,7.0,11.0,65,0.00,,---,-99.99,VWS V14.01,2013-10-02 18:00:00,
2013-10-02 14:04:00,71.6,59.2,29.67,SW,234,7.0,8.0,65,0.00,,---,0.01,VWS V14.01,2013-10-02 18:04:00,
2013-10-02 14:09:00,71.6,59.2,29.67,SW,229,7.0,8.0,65,0.00,,---,0.01,VWS V14.01,2013-10-02 18:09:00,
2013-10-02 14:14:00,71.6,59.2,29.66,SW,233,6.0,8.0,65,0.00,,---,0.01,VWS V14.01,2013-10-02 18:14:00,
2013-10-02 14:19:00,71.6,59.2,29.66,SW,236,8.0,10.0,65,0.00,,---,0.01,VWS V14.01,2013-10-02 18:19:00,
2013-10-02 14:24:00,71.5,59.1,29.66,SW,236,10.0,10.0,65,0.00,,---,0.01,VWS V14.01,2013-10-02 18:24:00,
2013-10-02 14:29:00,71.5,59.1,29.66,WSW,239,8.0,10.0,65,0.00,,---,0.01,VWS V14.01,2013-10-02 18:29:00,
2013-10-02 14:34:00,71.1,58.8,29.66,WSW,248,11.0,11.0,65,0.00,,---,0.01,VWS V14.01,2013-10-02 18:34:00,
2013-10-02 14:39:00,70.8,58.5,29.66,WSW,241,9.0,11.0,65,0.00,,---,0.01,VWS V14.01,2013-10-02 18:39:00,
2013-10-02 14:44:00,70.8,58.5,29.66,WSW,241,9.0,11.0,65,0.00,,---,0.01,VWS V14.01,2013-10-02 18:44:00,
2013-10-02 14:49:00,70.6,59.1,29.66,SW,223,8.0,11.0,67,0.00,,---,0.01,VWS V14.01,2013-10-02 18:49:00,
2013-10-02 14:55:00,70.6,59.1,29.66,SW,224,5.0,11.0,67,0.00,,---,0.01,VWS V14.01,2013-10-02 18:55:00,
2013-10-02 15:00:00,70.3,58.8,29.66,WSW,239,7.0,7.0,67,0.00,,---,0.01,VWS V14.01,2013-10-02 19:00:00,
2013-10-02 15:05:00,71.1,59.6,29.66,SW,227,6.0,8.0,67,0.00,,---,0.01,VWS V14.01,2013-10-02 19:05:00,
2013-10-02 15:10:00,71.3,59.8,29.66,SW,232,6.0,8.0,67,0.00,,---,0.01,VWS V14.01,2013-10-02 19:10:00,
2013-10-02 15:15:00,71.5,60.0,29.65,SW,232,6.0,8.0,67,0.00,,---,0.01,VWS V14.01,2013-10-02 19:15:00,
2013-10-02 15:20:00,71.5,60.0,29.65,SW,234,6.0,8.0,67,0.00,,---,0.01,VWS V14.01,2013-10-02 19:20:00,
2013-10-02 15:25:00,71.5,60.0,29.65,SW,229,5.0,10.0,67,0.00,,---,0.01,VWS V14.01,2013-10-02 19:25:00,
2013-10-02 15:30:00,71.3,59.8,29.65,WSW,247,7.0,10.0,67,0.00,,---,0.01,VWS V14.01,2013-10-02 19:30:00,
2013-10-02 15:35:00,71.3,60.2,29.65,SW,233,6.0,10.0,68,0.00,,---,0.01,VWS V14.01,2013-10-02 19:35:00,
2013-10-02 15:40:00,71.1,60.0,29.65,WSW,237,7.0,10.0,68,0.00,,---,0.01,VWS V14.01,2013-10-02 19:40:00,
2013-10-02 15:45:00,70.6,59.5,29.65,WSW,243,10.0,10.0,68,0.00,,---,0.01,VWS V14.01,2013-10-02 19:45:00,
2013-10-02 15:50:00,70.4,59.3,29.65,SW,234,6.0,10.0,68,0.00,,---,0.01,VWS V14.01,2013-10-02 19:50:00,
2013-10-02 15:55:00,70.6,60.0,29.65,SW,236,7.0,10.0,69,0.00,,---,0.01,VWS V14.01,2013-10-02 19:55:00,
2013-10-02 16:00:00,70.6,60.0,29.65,SSW,209,6.0,6.0,69,0.00,,---,0.01,VWS V14.01,2013-10-02 20:00:00,
2013-10-02 16:05:00,70.6,60.0,29.65,SSW,199,7.0,7.0,69,0.00,,---,0.01,VWS V14.01,2013-10-02 20:05:00,
2013-10-02 16:10:00,70.4,59.8,29.65,SW,227,4.0,7.0,69,0.00,,---,0.01,VWS V14.01,2013-10-02 20:10:00,
2013-10-02 16:15:00,70.4,60.2,29.66,SW,229,7.0,7.0,70,0.00,,---,0.01,VWS V14.01,2013-10-02 20:15:00,
2013-10-02 16:20:00,70.4,60.2,29.66,SW,227,6.0,7.0,70,0.00,,---,0.01,VWS V14.01,2013-10-02 20:20:00,
2013-10-02 16:25:00,70.3,60.1,29.66,SW,230,5.0,7.0,70,0.00,,---,0.01,VWS V14.01,2013-10-02 20:25:00,
2013-10-02 16:30:00,70.3,60.1,29.66,SW,230,6.0,7.0,70,0.00,,---,0.01,VWS V14.01,2013-10-02 20:30:00,
2013-10-02 16:35:00,70.3,60.1,29.66,SW,232,7.0,7.0,70,0.00,,---,0.01,VWS V14.01,2013-10-02 20:35:00,
2013-10-02 16:40:00,70.3,60.5,29.66,SW,233,7.0,8.0,71,0.00,,---,0.01,VWS V14.01,2013-10-02 20:40:00,
2013-10-02 16:45:00,70.3,60.5,29.66,SW,230,4.0,8.0,71,0.00,,---,0.01,VWS V14.01,2013-10-02 20:45:00,
2013-10-02 16:50:00,70.3,60.5,29.66,WSW,237,7.0,8.0,71,0.00,,---,0.01,VWS V14.01,2013-10-02 20:50:00,
2013-10-02 16:55:00,70.3,60.5,29.66,WSW,243,7.0,10.0,71,0.00,,---,0.01,VWS V14.01,2013-10-02 20:55:00,
2013-10-02 17:00:00,70.3,60.5,29.66,WSW,246,8.0,8.0,71,0.00,,---,0.01,VWS V14.01,2013-10-02 21:00:00,
2013-10-02 17:05:00,70.3,60.5,29.66,WSW,248,7.0,8.0,71,0.00,,---,0.01,VWS V14.01,2013-10-02 21:05:00,
2013-10-02 17:10:00,70.3,59.2,29.66,WSW,241,6.0,8.0,68,0.00,,---,0.01,VWS V14.01,2013-10-02 21:10:00,
2013-10-02 17:15:00,70.3,59.2,29.66,WSW,247,6.0,8.0,68,0.00,,---,0.01,VWS V14.01,2013-10-02 21:15:00,
2013-10-02 17:20:00,70.3,59.2,29.66,WSW,256,3.0,8.0,68,0.00,,---,0.01,VWS V14.01,2013-10-02 21:20:00,
2013-10-02 17:25:00,70.3,59.2,29.66,West,260,0.0,8.0,68,0.00,,---,0.01,VWS V14.01,2013-10-02 21:25:00,
2013-10-02 17:30:00,70.3,59.2,29.67,WSW,248,7.0,8.0,68,0.00,,---,0.01,VWS V14.01,2013-10-02 21:30:00,
2013-10-02 17:35:00,70.1,57.8,29.67,WSW,251,7.0,8.0,65,0.00,,---,0.01,VWS V14.01,2013-10-02 21:35:00,
2013-10-02 17:40:00,70.1,57.8,29.67,WSW,253,7.0,8.0,65,0.00,,---,0.01,VWS V14.01,2013-10-02 21:40:00,
2013-10-02 17:45:00,70.4,57.7,29.67,WSW,257,5.0,8.0,64,0.00,,---,0.01,VWS V14.01,2013-10-02 21:45:00,
2013-10-02 17:50:00,70.4,57.7,29.67,WSW,253,4.0,8.0,64,0.00,,---,0.01,VWS V14.01,2013-10-02 21:50:00,
2013-10-02 17:55:00,69.8,57.1,29.67,WSW,250,5.0,8.0,64,0.00,,---,0.01,VWS V14.01,2013-10-02 21:55:00,
2013-10-02 18:00:00,69.8,57.9,29.67,WSW,244,5.0,5.0,66,0.00,,---,0.01,VWS V14.01,2013-10-02 22:00:00,
2013-10-02 18:05:00,69.4,57.6,29.67,WSW,247,5.0,6.0,66,0.00,,---,0.01,VWS V14.01,2013-10-02 22:05:00,
2013-10-02 18:10:00,69.1,57.3,29.67,WSW,247,3.0,6.0,66,0.00,,---,0.01,VWS V14.01,2013-10-02 22:10:00,
2013-10-02 18:16:00,68.8,57.0,29.68,WSW,247,5.0,6.0,66,0.00,,---,0.01,VWS V14.01,2013-10-02 22:16:00,
2013-10-02 18:21:00,68.4,56.6,29.68,WSW,247,3.0,6.0,66,0.00,,---,0.01,VWS V14.01,2013-10-02 22:21:00,
2013-10-02 18:26:00,68.4,56.6,29.68,WSW,246,0.0,6.0,66,0.00,,---,0.01,VWS V14.01,2013-10-02 22:26:00,
2013-10-02 18:31:00,68.4,56.6,29.68,WSW,246,0.0,6.0,66,0.00,,---,0.01,VWS V14.01,2013-10-02 22:31:00,
2013-10-02 18:36:00,67.1,55.4,29.68,WSW,246,0.0,6.0,66,0.00,,---,0.01,VWS V14.01,2013-10-02 22:36:00,
2013-10-02 18:41:00,66.6,54.9,29.68,SW,236,0.0,6.0,66,0.00,,---,0.01,VWS V14.01,2013-10-02 22:41:00,
2013-10-02 18:46:00,66.3,54.6,29.69,WSW,247,0.0,6.0,66,0.00,,---,0.01,VWS V14.01,2013-10-02 22:46:00,
2013-10-02 18:51:00,65.6,54.0,29.69,WSW,247,0.0,6.0,66,0.00,,---,0.01,VWS V14.01,2013-10-02 22:51:00,
2013-10-02 18:56:00,65.5,53.8,29.69,WSW,247,1.0,6.0,66,0.00,,---,0.01,VWS V14.01,2013-10-02 22:56:00,
2013-10-02 19:00:00,65.2,53.6,29.69,WSW,247,1.0,6.0,66,0.00,,---,-99.99,VWS V14.01,2013-10-02 23:00:00,
2013-10-02 19:01:00,65.2,53.6,29.69,WSW,247,1.0,1.0,66,0.00,,---,0.01,VWS V14.01,2013-10-02 23:01:00,
2013-10-02 19:06:00,65.2,53.6,29.69,WSW,247,2.0,3.0,66,0.00,,---,0.01,VWS V14.01,2013-10-02 23:06:00,
2013-10-02 19:11:00,64.5,52.9,29.69,WSW,247,2.0,3.0,66,0.00,,---,0.01,VWS V14.01,2013-10-02 23:11:00,
2013-10-02 19:16:00,64.2,52.6,29.70,WSW,247,0.0,3.0,66,0.00,,---,0.01,VWS V14.01,2013-10-02 23:16:00,
2013-10-02 19:21:00,64.0,52.4,29.70,WSW,247,0.0,3.0,66,0.00,,---,0.01,VWS V14.01,2013-10-02 23:21:00,
2013-10-02 19:26:00,64.0,52.4,29.70,WSW,247,0.0,3.0,66,0.00,,---,0.01,VWS V14.01,2013-10-02 23:26:00,
2013-10-02 19:31:00,63.9,52.3,29.71,WSW,246,6.0,6.0,66,0.00,,---,0.01,VWS V14.01,2013-10-02 23:31:00,
2013-10-02 19:36:00,63.7,52.1,29.71,WSW,247,6.0,6.0,66,0.00,,---,0.01,VWS V14.01,2013-10-02 23:36:00,
2013-10-02 19:41:00,63.9,52.3,29.71,WSW,244,7.0,7.0,66,0.00,,---,0.01,VWS V14.01,2013-10-02 23:41:00,
2013-10-02 19:46:00,64.3,52.7,29.72,WSW,248,5.0,7.0,66,0.00,,---,0.01,VWS V14.01,2013-10-02 23:46:00,
2013-10-02 19:49:00,64.5,52.9,29.72,WSW,248,4.0,7.0,66,0.00,,---,0.01,VWS V14.01,2013-10-02 23:49:00,
2013-10-02 19:54:00,65.2,53.6,29.72,WSW,248,3.0,7.0,66,0.00,,---,0.01,VWS V14.01,2013-10-02 23:54:00,
2013-10-02 19:59:00,65.3,53.7,29.73,WSW,248,3.0,7.0,66,0.00,,---,0.01,VWS V14.01,2013-10-02 23:59:00,
2013-10-02 20:00:00,65.3,53.7,29.73,WSW,248,3.0,7.0,66,0.00,,---,-99.99,VWS V14.01,2013-10-03 00:00:00,
2013-10-02 20:04:00,65.6,54.0,29.73,WSW,248,0.0,3.0,66,0.00,,---,0.01,VWS V14.01,2013-10-03 00:04:00,
2013-10-02 20:10:00,65.2,53.6,29.73,WSW,248,4.0,4.0,66,0.00,,---,0.01,VWS V14.01,2013-10-03 00:10:00,
2013-10-02 20:14:00,65.2,53.6,29.73,WSW,256,0.0,6.0,66,0.00,,---,0.01,VWS V14.01,2013-10-03 00:14:00,
2013-10-02 20:20:00,65.3,53.7,29.73,West,260,0.0,6.0,66,0.00,,---,0.01,VWS V14.01,2013-10-03 00:20:00,
2013-10-02 20:25:00,65.3,53.7,29.73,WSW,257,0.0,6.0,66,0.00,,---,0.01,VWS V14.01,2013-10-03 00:25:00,
2013-10-02 20:30:00,66.1,54.4,29.73,WSW,257,2.0,6.0,66,0.00,,---,0.01,VWS V14.01,2013-10-03 00:30:00,
2013-10-02 20:35:00,66.3,55.8,29.73,West,274,0.0,6.0,69,0.00,,---,0.01,VWS V14.01,2013-10-03 00:35:00,
2013-10-02 20:40:00,66.3,55.8,29.73,West,274,0.0,6.0,69,0.00,,---,0.01,VWS V14.01,2013-10-03 00:40:00,
2013-10-02 20:45:00,65.6,55.2,29.74,West,274,0.0,6.0,69,0.00,,---,0.01,VWS V14.01,2013-10-03 00:45:00,
2013-10-02 20:50:00,65.6,55.2,29.74,West,274,0.0,6.0,69,0.00,,---,0.01,VWS V14.01,2013-10-03 00:50:00,
2013-10-02 20:55:00,65.6,55.2,29.74,West,274,0.0,6.0,69,0.00,,---,0.01,VWS V14.01,2013-10-03 00:55:00,
2013-10-02 21:00:00,65.6,55.2,29.75,West,274,0.0,0.0,69,0.00,,---,0.01,VWS V14.01,2013-10-03 01:00:00,
2013-10-02 21:05:00,63.9,53.5,29.75,West,274,0.0,0.0,69,0.00,,---,0.01,VWS V14.01,2013-10-03 01:05:00,
2013-10-02 21:10:00,63.9,53.5,29.75,West,274,0.0,0.0,69,0.00,,---,0.01,VWS V14.01,2013-10-03 01:10:00,
2013-10-02 21:15:00,63.9,53.5,29.76,West,274,0.0,0.0,69,0.00,,---,0.01,VWS V14.01,2013-10-03 01:15:00,
2013-10-02 21:20:00,63.9,53.5,29.76,West,274,0.0,0.0,69,0.00,,---,0.01,VWS V14.01,2013-10-03 01:20:00,
2013-10-02 21:25:00,63.7,53.3,29.76,West,274,0.0,0.0,69,0.00,,---,0.01,VWS V14.01,2013-10-03 01:25:00,
2013-10-02 21:30:00,63.7,53.3,29.76,West,274,0.0,0.0,69,0.00,,---,0.01,VWS V14.01,2013-10-03 01:30:00,
2013-10-02 21:35:00,63.5,53.2,29.76,West,274,0.0,0.0,69,0.00,,---,0.01,VWS V14.01,2013-10-03 01:35:00,
2013-10-02 21:40:00,63.4,53.1,29.76,West,274,0.0,0.0,69,0.00,,---,0.01,VWS V14.01,2013-10-03 01:40:00,
2013-10-02 21:45:00,63.4,53.1,29.77,West,274,0.0,0.0,69,0.00,,---,0.01,VWS V14.01,2013-10-03 01:45:00,
2013-10-02 21:50:00,63.2,51.2,29.77,West,274,0.0,0.0,65,0.00,,---,0.01,VWS V14.01,2013-10-03 01:50:00,
2013-10-02 21:55:00,63.1,51.2,29.77,West,274,0.0,0.0,65,0.00,,---,0.01,VWS V14.01,2013-10-03 01:55:00,
2013-10-02 22:00:00,62.7,51.2,29.77,West,274,0.0,0.0,66,0.00,,---,0.01,VWS V14.01,2013-10-03 02:00:00,
2013-10-02 22:05:00,62.6,51.1,29.77,West,274,0.0,0.0,66,0.00,,---,0.01,VWS V14.01,2013-10-03 02:05:00,
2013-10-02 22:06:00,62.4,50.9,29.77,West,274,0.0,0.0,66,0.00,,---,0.01,VWS V14.01,2013-10-03 02:06:00,
2013-10-02 22:11:00,62.3,51.2,29.77,West,274,0.0,0.0,67,0.00,,---,0.01,VWS V14.01,2013-10-03 02:11:00,
2013-10-02 22:16:00,62.4,51.3,29.77,West,274,0.0,0.0,67,0.00,,---,0.01,VWS V14.01,2013-10-03 02:16:00,
2013-10-02 22:21:00,62.4,51.3,29.77,West,274,0.0,0.0,67,0.00,,---,0.01,VWS V14.01,2013-10-03 02:21:00,
2013-10-02 22:26:00,63.7,52.5,29.77,West,268,0.0,0.0,67,0.00,,---,0.01,VWS V14.01,2013-10-03 02:26:00,
2013-10-02 22:31:00,63.7,52.5,29.78,West,268,0.0,0.0,67,0.00,,---,0.01,VWS V14.01,2013-10-03 02:31:00,
2013-10-02 22:36:00,63.9,51.5,29.78,West,268,0.0,0.0,64,0.00,,---,0.01,VWS V14.01,2013-10-03 02:36:00,
2013-10-02 22:41:00,63.9,51.5,29.78,West,268,0.0,0.0,64,0.00,,---,0.01,VWS V14.01,2013-10-03 02:41:00,
2013-10-02 22:46:00,63.9,51.1,29.78,West,268,0.0,0.0,63,0.00,,---,0.01,VWS V14.01,2013-10-03 02:46:00,
2013-10-02 22:51:00,63.5,50.7,29.78,West,268,0.0,0.0,63,0.00,,---,0.01,VWS V14.01,2013-10-03 02:51:00,
2013-10-02 22:56:00,63.4,50.6,29.78,West,268,0.0,0.0,63,0.00,,---,0.01,VWS V14.01,2013-10-03 02:56:00,
2013-10-02 23:00:00,63.4,50.6,29.78,West,268,0.0,0.0,63,0.00,,---,-99.99,VWS V14.01,2013-10-03 03:00:00,
2013-10-02 23:01:00,63.4,50.6,29.78,West,268,0.0,0.0,63,0.00,,---,0.01,VWS V14.01,2013-10-03 03:01:00,
2013-10-02 23:06:00,63.4,50.6,29.78,West,268,0.0,0.0,63,0.00,,---,0.01,VWS V14.01,2013-10-03 03:06:00,
2013-10-02 23:11:00,62.7,49.9,29.78,West,268,0.0,0.0,63,0.00,,---,0.01,VWS V14.01,2013-10-03 03:11:00,
2013-10-02 23:16:00,62.6,49.8,29.79,West,268,0.0,0.0,63,0.00,,---,0.01,VWS V14.01,2013-10-03 03:16:00,
2013-10-02 23:21:00,62.6,52.7,29.79,West,268,0.0,0.0,70,0.00,,---,0.01,VWS V14.01,2013-10-03 03:21:00,
2013-10-02 23:27:00,62.6,52.7,29.79,West,268,0.0,0.0,70,0.00,,---,0.01,VWS V14.01,2013-10-03 03:27:00,
2013-10-02 23:32:00,61.3,51.5,29.79,West,268,0.0,0.0,70,0.00,,---,0.01,VWS V14.01,2013-10-03 03:32:00,
2013-10-02 23:37:00,61.0,52.7,29.79,West,268,0.0,0.0,74,0.00,,---,0.01,VWS V14.01,2013-10-03 03:37:00,
2013-10-02 23:42:00,60.5,53.3,29.79,West,268,0.0,0.0,77,0.00,,---,0.01,VWS V14.01,2013-10-03 03:42:00,
2013-10-02 23:47:00,60.5,53.3,29.79,West,268,0.0,0.0,77,0.00,,---,0.01,VWS V14.01,2013-10-03 03:47:00,
2013-10-02 23:52:00,60.5,53.3,29.79,West,268,0.0,0.0,77,0.00,,---,0.01,VWS V14.01,2013-10-03 03:52:00,
2013-10-02 23:57:00,59.6,52.4,29.79,West,268,0.0,0.0,77,0.00,,---,0.01,VWS V14.01,2013-10-03 03:57:00,